Felker Army Air Field Fort Eustis US
ICAO: KFAF
IATA: FAF
Category: Medium
Scheduled Services: No

Elevation: 12 ft
TransAlt. 18000 ft.

Airport Communications:
NORFOLK APP/DEP:125.7
CTAF:126.3
GND:121.35
BASE OPS:134.1
PMSV METRO:134.1
TWR:126.3

KFAF Zoom In..

Runways:

(A) RW 14 length 3025 ft width 75 ft
---- / hdg 139

(B) RW 32 length 3025 ft width 75 ft
---- / hdg 319

Location; KFAF
Day. 20 / Time. 09.56 Zulu
* Altimeter: 30.22
* Temperature: 07° c. 44.6°f.
* Wind from: 320° Speed 10 kn with Gusts up to 16 kn.
Dewpoint: -02° c.
Visibility: 10 Statute Miles.
Clouds: Clear (automated report).

KFAF 200956Z AUTO 32010G16KT 10SM CLR 07/M02 A3022 RMK AO2 SLP237 T00681021 $


Wind From 320°
Speed 10 kn.

  YouTube Music Video
 
jpsmedia.com for Web Design  worldairports.se 2018   terms of use